Time;durP1;ratioP1;P1;durP2;ratioP2;P2;SDS_P1;SDS_P2;PMS_P1;PMS_P2;Temp;Humidity;BMP_temperature;BMP_pressure;BME280_temperature;BME280_humidity;BME280_pressure;Samples;Min_cycle;Max_cycle;Signal;HPM_P1;HPM_P2
2022/03/31 00:00:15;;;;;;;24.73;21.47;;;;;;;;;;5092018;28;20910;-78
2022/03/31 00:02:42;;;;;;;23.10;19.60;;;;;;;;;;5091468;28;21178;-78
2022/03/31 00:05:11;;;;;;;23.97;19.50;;;;;;;;;;5092718;28;20460;-79
2022/03/31 00:07:48;;;;;;;21.53;19.23;;;;;;;;;;5091999;28;20435;-78
2022/03/31 00:10:15;;;;;;;24.00;19.50;;;;;;;;;;5091907;28;20441;-79
2022/03/31 00:12:42;;;;;;;24.97;20.90;;;;;;;;;;5086189;28;20444;-79
2022/03/31 00:15:09;;;;;;;25.60;20.50;;;;;;;;;;5079229;28;21025;-78
2022/03/31 00:17:37;;;;;;;22.67;19.20;;;;;;;;;;5089112;28;20463;-78
2022/03/31 00:20:04;;;;;;;21.73;19.00;;;;;;;;;;5092099;28;20460;-79
2022/03/31 00:22:33;;;;;;;20.40;17.87;;;;;;;;;;5091900;28;20435;-79
2022/03/31 00:25:00;;;;;;;20.67;17.73;;;;;;;;;;5093406;28;20464;-78
2022/03/31 00:27:27;;;;;;;23.07;19.47;;;;;;;;;;5096694;28;20568;-78
2022/03/31 00:29:54;;;;;;;22.50;19.17;;;;;;;;;;5096139;28;20435;-78
2022/03/31 00:32:22;;;;;;;21.90;19.30;;;;;;;;;;5095820;28;20919;-78
2022/03/31 00:34:49;;;;;;;22.70;19.63;;;;;;;;;;5095269;28;20491;-78
2022/03/31 00:37:16;;;;;;;20.33;17.60;;;;;;;;;;5095844;28;20497;-78
2022/03/31 00:39:44;;;;;;;21.30;18.00;;;;;;;;;;5095705;28;20869;-78
2022/03/31 00:42:12;;;;;;;21.60;17.90;;;;;;;;;;5095991;28;20455;-78
2022/03/31 00:44:39;;;;;;;19.90;16.77;;;;;;;;;;5096005;28;20463;-79
2022/03/31 00:47:07;;;;;;;20.20;17.93;;;;;;;;;;5095839;28;20451;-79
2022/03/31 00:49:34;;;;;;;18.63;16.70;;;;;;;;;;5095749;28;20493;-78
2022/03/31 00:52:02;;;;;;;20.90;17.10;;;;;;;;;;5095126;28;20462;-79
2022/03/31 00:54:29;;;;;;;19.90;16.67;;;;;;;;;;5096635;28;21010;-80
2022/03/31 00:56:58;;;;;;;18.40;15.77;;;;;;;;;;5095859;28;20447;-81
2022/03/31 00:59:25;;;;;;;18.23;16.20;;;;;;;;;;5095861;28;20552;-79
2022/03/31 01:01:52;;;;;;;16.93;15.23;;;;;;;;;;5096002;28;20512;-79
2022/03/31 01:04:20;;;;;;;18.60;16.60;;;;;;;;;;5095310;28;20475;-78
2022/03/31 01:06:47;;;;;;;19.67;16.90;;;;;;;;;;5095210;28;20443;-77
2022/03/31 01:09:14;;;;;;;19.13;17.07;;;;;;;;;;5094963;28;20440;-78
2022/03/31 01:11:41;;;;;;;19.60;17.10;;;;;;;;;;5095174;28;20454;-79
2022/03/31 01:14:11;;;;;;;17.50;15.13;;;;;;;;;;5094934;28;20541;-78
2022/03/31 01:16:39;;;;;;;17.37;15.57;;;;;;;;;;5095203;28;20451;-79
2022/03/31 01:19:07;;;;;;;20.00;16.30;;;;;;;;;;5095309;28;20483;-79
2022/03/31 01:21:37;;;;;;;17.93;15.80;;;;;;;;;;5095668;28;20453;-78
2022/03/31 01:24:07;;;;;;;18.63;16.07;;;;;;;;;;5094619;28;20460;-77
2022/03/31 01:26:35;;;;;;;16.93;15.13;;;;;;;;;;5094734;28;20515;-78
2022/03/31 01:29:02;;;;;;;20.40;16.33;;;;;;;;;;5094514;28;20869;-78
2022/03/31 01:31:29;;;;;;;17.37;15.47;;;;;;;;;;5094750;28;20451;-78
2022/03/31 01:33:56;;;;;;;16.13;14.30;;;;;;;;;;5094383;28;20512;-78
2022/03/31 01:36:23;;;;;;;18.03;15.40;;;;;;;;;;5094472;28;20439;-79
2022/03/31 01:38:50;;;;;;;16.67;14.97;;;;;;;;;;5094551;28;20974;-78
2022/03/31 01:41:18;;;;;;;18.10;15.20;;;;;;;;;;5096148;28;20447;-78
2022/03/31 01:43:46;;;;;;;17.60;15.70;;;;;;;;;;5095646;28;20990;-78
2022/03/31 01:46:13;;;;;;;17.60;15.37;;;;;;;;;;5095534;28;20455;-79
2022/03/31 01:48:40;;;;;;;18.57;16.30;;;;;;;;;;5095713;28;20452;-78
2022/03/31 01:51:07;;;;;;;18.33;16.03;;;;;;;;;;5105433;28;20443;-78
2022/03/31 01:53:35;;;;;;;20.87;17.83;;;;;;;;;;5107076;28;20474;-78
2022/03/31 01:56:02;;;;;;;21.70;18.90;;;;;;;;;;5105065;28;20443;-77
2022/03/31 01:58:30;;;;;;;21.70;18.63;;;;;;;;;;5106471;28;20440;-79
2022/03/31 02:00:58;;;;;;;20.17;17.17;;;;;;;;;;5097465;28;20923;-78
2022/03/31 02:03:25;;;;;;;21.37;17.90;;;;;;;;;;5094525;28;20468;-79
2022/03/31 02:05:52;;;;;;;21.77;18.70;;;;;;;;;;5095970;28;20440;-79
2022/03/31 02:08:19;;;;;;;22.53;17.70;;;;;;;;;;5095090;28;20448;-78
2022/03/31 02:10:46;;;;;;;20.77;18.47;;;;;;;;;;5095860;28;20466;-79
2022/03/31 02:13:14;;;;;;;19.83;17.73;;;;;;;;;;5094404;28;20987;-78
2022/03/31 02:15:43;;;;;;;18.87;16.90;;;;;;;;;;5094133;28;20539;-79
2022/03/31 02:18:10;;;;;;;20.63;18.17;;;;;;;;;;5095293;28;20563;-78
2022/03/31 02:20:39;;;;;;;20.00;16.97;;;;;;;;;;5094040;28;20585;-78
2022/03/31 02:23:06;;;;;;;20.20;18.20;;;;;;;;;;5093659;28;20924;-78
2022/03/31 02:25:34;;;;;;;19.53;16.80;;;;;;;;;;5093012;28;20485;-78
2022/03/31 02:28:02;;;;;;;20.90;18.17;;;;;;;;;;5092936;28;20447;-79
2022/03/31 02:30:29;;;;;;;20.50;18.30;;;;;;;;;;5092781;28;20543;-79
2022/03/31 02:32:59;;;;;;;21.63;17.50;;;;;;;;;;5092479;28;20530;-77
2022/03/31 02:35:26;;;;;;;21.53;18.40;;;;;;;;;;5092703;28;20953;-78
2022/03/31 02:37:53;;;;;;;20.70;17.50;;;;;;;;;;5092203;28;20432;-79
2022/03/31 02:40:20;;;;;;;18.90;16.90;;;;;;;;;;5092504;28;20886;-77
2022/03/31 02:42:47;;;;;;;18.50;16.60;;;;;;;;;;5091808;28;20508;-78
2022/03/31 02:45:15;;;;;;;19.50;17.40;;;;;;;;;;5092672;28;20882;-78
2022/03/31 02:47:44;;;;;;;21.13;17.60;;;;;;;;;;5091527;28;20865;-77
2022/03/31 02:50:13;;;;;;;20.53;18.23;;;;;;;;;;5093776;28;20446;-80
2022/03/31 02:55:25;;;;;;;20.40;17.97;;;;;;;;;;5092345;28;20440;-78
2022/03/31 02:57:52;;;;;;;20.83;17.67;;;;;;;;;;5092299;28;20457;-79
2022/03/31 03:00:19;;;;;;;21.37;18.80;;;;;;;;;;5091877;28;20491;-78
2022/03/31 03:02:46;;;;;;;22.10;19.30;;;;;;;;;;5091925;28;20478;-78
2022/03/31 03:05:15;;;;;;;24.80;20.00;;;;;;;;;;5087405;28;20559;-78
2022/03/31 03:07:42;;;;;;;22.40;20.03;;;;;;;;;;5071629;28;20451;-79
2022/03/31 03:10:09;;;;;;;22.30;20.00;;;;;;;;;;5072123;28;20474;-78
2022/03/31 03:12:37;;;;;;;21.43;19.20;;;;;;;;;;5071579;28;20541;-77
2022/03/31 03:15:04;;;;;;;22.43;19.73;;;;;;;;;;5072022;28;20465;-79
2022/03/31 03:17:31;;;;;;;21.47;18.60;;;;;;;;;;5071398;28;20502;-79
2022/03/31 03:19:58;;;;;;;22.20;19.70;;;;;;;;;;5074980;28;20475;-78
2022/03/31 03:22:26;;;;;;;22.30;18.90;;;;;;;;;;5071591;28;20491;-78
2022/03/31 03:24:53;;;;;;;22.53;19.60;;;;;;;;;;5071712;28;20472;-78
2022/03/31 03:27:20;;;;;;;23.43;20.50;;;;;;;;;;5071908;28;20449;-79
2022/03/31 03:29:47;;;;;;;25.77;19.93;;;;;;;;;;5071645;28;20437;-78
2022/03/31 03:32:14;;;;;;;22.80;19.60;;;;;;;;;;5072036;28;20532;-79
2022/03/31 03:34:42;;;;;;;23.07;20.60;;;;;;;;;;5071045;28;20475;-79
2022/03/31 03:37:09;;;;;;;21.70;19.37;;;;;;;;;;5071111;28;20447;-78
2022/03/31 03:39:38;;;;;;;22.70;20.40;;;;;;;;;;5071062;28;20479;-79
2022/03/31 03:42:06;;;;;;;22.10;19.80;;;;;;;;;;5071167;28;20464;-78
2022/03/31 03:44:34;;;;;;;23.13;20.63;;;;;;;;;;5071519;28;20475;-79
2022/03/31 03:47:02;;;;;;;21.80;19.50;;;;;;;;;;5071363;28;20445;-80
2022/03/31 03:49:29;;;;;;;22.23;19.60;;;;;;;;;;5070885;28;20446;-78
2022/03/31 03:51:56;;;;;;;22.20;19.00;;;;;;;;;;5071468;28;20450;-78
2022/03/31 03:54:23;;;;;;;24.60;21.53;;;;;;;;;;5071122;28;20465;-78
2022/03/31 03:56:51;;;;;;;21.53;19.10;;;;;;;;;;5071292;28;20453;-78
2022/03/31 03:59:19;;;;;;;22.10;19.30;;;;;;;;;;5069683;28;20446;-78
2022/03/31 04:01:46;;;;;;;23.80;20.43;;;;;;;;;;5070440;28;20492;-79
2022/03/31 04:04:13;;;;;;;22.10;19.70;;;;;;;;;;5079068;28;20473;-78
2022/03/31 04:06:40;;;;;;;23.77;21.17;;;;;;;;;;5081829;28;20998;-78
2022/03/31 04:09:07;;;;;;;23.10;19.70;;;;;;;;;;5070925;28;20446;-79
2022/03/31 04:11:34;;;;;;;23.40;20.90;;;;;;;;;;5071375;28;20525;-79
2022/03/31 04:14:03;;;;;;;22.20;19.70;;;;;;;;;;5070476;28;20474;-79
2022/03/31 04:16:30;;;;;;;22.13;19.40;;;;;;;;;;5082174;28;20438;-78
2022/03/31 04:18:57;;;;;;;24.40;20.63;;;;;;;;;;5087884;28;20503;-78
2022/03/31 04:21:24;;;;;;;23.10;20.00;;;;;;;;;;5086383;28;20479;-79
2022/03/31 04:23:51;;;;;;;23.60;20.63;;;;;;;;;;5085329;28;20535;-79
2022/03/31 04:26:18;;;;;;;25.60;21.17;;;;;;;;;;5091877;28;20432;-80
2022/03/31 04:28:45;;;;;;;26.07;21.53;;;;;;;;;;5091036;28;20442;-78
2022/03/31 04:31:13;;;;;;;23.70;21.30;;;;;;;;;;5094622;28;20509;-79
2022/03/31 04:33:40;;;;;;;23.93;21.40;;;;;;;;;;5090746;28;20471;-78
2022/03/31 04:36:07;;;;;;;22.33;20.07;;;;;;;;;;5091108;28;20445;-78
2022/03/31 04:38:34;;;;;;;23.50;20.40;;;;;;;;;;5080829;28;20482;-79
2022/03/31 04:41:01;;;;;;;23.57;20.93;;;;;;;;;;5074800;28;20598;-79
2022/03/31 04:43:29;;;;;;;22.90;19.93;;;;;;;;;;5090550;28;20493;-78
2022/03/31 04:45:56;;;;;;;22.83;20.33;;;;;;;;;;5090976;28;20500;-78
2022/03/31 04:48:24;;;;;;;20.83;18.67;;;;;;;;;;5090326;28;20811;-78
2022/03/31 04:50:51;;;;;;;21.20;18.97;;;;;;;;;;5090248;28;20441;-78
2022/03/31 04:53:18;;;;;;;20.97;18.73;;;;;;;;;;5089824;28;20461;-78
2022/03/31 04:55:45;;;;;;;22.80;20.37;;;;;;;;;;5090513;28;20502;-79
2022/03/31 04:58:12;;;;;;;19.87;17.43;;;;;;;;;;5090883;28;20505;-80
2022/03/31 05:00:39;;;;;;;21.20;18.93;;;;;;;;;;5090529;28;20480;-79
2022/03/31 05:03:07;;;;;;;21.27;18.30;;;;;;;;;;5090815;28;20581;-79
2022/03/31 05:05:35;;;;;;;19.73;17.27;;;;;;;;;;5083379;28;20981;-79
2022/03/31 05:08:02;;;;;;;23.03;19.23;;;;;;;;;;5070550;28;20477;-79
2022/03/31 05:10:29;;;;;;;21.00;18.80;;;;;;;;;;5072923;28;20502;-79
2022/03/31 05:12:56;;;;;;;20.13;17.80;;;;;;;;;;5077238;28;20453;-80
2022/03/31 05:15:24;;;;;;;21.43;18.70;;;;;;;;;;5075710;28;20547;-78
2022/03/31 05:17:51;;;;;;;22.77;19.00;;;;;;;;;;5074450;28;20445;-78
2022/03/31 05:20:18;;;;;;;20.97;18.77;;;;;;;;;;5074004;28;20512;-77
2022/03/31 05:22:47;;;;;;;22.90;18.77;;;;;;;;;;5082512;28;20432;-79
2022/03/31 05:25:14;;;;;;;22.27;19.53;;;;;;;;;;5098218;28;20463;-79
2022/03/31 05:27:41;;;;;;;20.57;17.80;;;;;;;;;;5096663;28;20451;-80
2022/03/31 05:30:09;;;;;;;20.63;18.20;;;;;;;;;;5100349;28;20473;-78
2022/03/31 05:32:36;;;;;;;20.77;18.40;;;;;;;;;;5107040;28;20528;-77
2022/03/31 05:35:03;;;;;;;22.00;19.27;;;;;;;;;;5108249;28;20488;-78
2022/03/31 05:37:30;;;;;;;23.13;19.53;;;;;;;;;;5105073;28;20449;-78
2022/03/31 05:40:00;;;;;;;20.90;18.70;;;;;;;;;;5103995;28;20475;-76
2022/03/31 05:42:27;;;;;;;21.60;19.30;;;;;;;;;;5107568;28;20447;-78
2022/03/31 05:44:54;;;;;;;25.20;20.17;;;;;;;;;;5101861;28;20461;-78
2022/03/31 05:47:22;;;;;;;21.93;18.60;;;;;;;;;;5097621;28;20450;-79
2022/03/31 05:49:49;;;;;;;23.80;18.40;;;;;;;;;;5095931;28;20437;-80
2022/03/31 05:52:16;;;;;;;22.37;19.97;;;;;;;;;;5096615;28;20438;-80
2022/03/31 05:54:43;;;;;;;22.80;20.07;;;;;;;;;;5096827;28;20472;-78
2022/03/31 05:57:11;;;;;;;24.33;20.60;;;;;;;;;;5096423;28;20473;-78
2022/03/31 05:59:38;;;;;;;21.37;19.10;;;;;;;;;;5083727;28;20445;-77
2022/03/31 06:02:05;;;;;;;24.23;20.97;;;;;;;;;;5088142;28;20988;-77
2022/03/31 06:04:32;;;;;;;21.43;19.20;;;;;;;;;;5094108;28;20468;-78
2022/03/31 06:06:59;;;;;;;24.37;20.97;;;;;;;;;;5095108;28;20454;-78
2022/03/31 06:09:26;;;;;;;23.13;20.63;;;;;;;;;;5095339;28;20479;-79
2022/03/31 06:11:53;;;;;;;23.00;19.63;;;;;;;;;;5096631;28;20518;-78
2022/03/31 06:14:22;;;;;;;22.00;19.33;;;;;;;;;;5094325;28;20524;-79
2022/03/31 06:16:49;;;;;;;22.13;19.70;;;;;;;;;;5095141;28;20444;-78
2022/03/31 06:19:17;;;;;;;25.63;20.97;;;;;;;;;;5094931;28;20474;-78
2022/03/31 06:21:45;;;;;;;22.90;20.23;;;;;;;;;;5094164;28;20490;-77
2022/03/31 06:24:12;;;;;;;23.90;20.43;;;;;;;;;;5094797;28;20522;-78
2022/03/31 06:26:39;;;;;;;24.33;20.17;;;;;;;;;;5095132;28;20903;-80
2022/03/31 06:29:07;;;;;;;23.93;20.00;;;;;;;;;;5095285;28;20466;-77
2022/03/31 06:31:35;;;;;;;21.37;18.47;;;;;;;;;;5095760;28;20471;-77
2022/03/31 06:34:02;;;;;;;24.47;19.37;;;;;;;;;;5095346;28;20457;-78
2022/03/31 06:36:30;;;;;;;22.60;19.63;;;;;;;;;;5095148;28;20453;-79
2022/03/31 06:38:57;;;;;;;24.43;20.00;;;;;;;;;;5094552;28;20461;-78
2022/03/31 06:41:24;;;;;;;22.60;20.20;;;;;;;;;;5093874;28;20988;-79
2022/03/31 06:43:52;;;;;;;20.63;18.13;;;;;;;;;;5093854;28;20473;-78
2022/03/31 06:46:19;;;;;;;24.63;19.53;;;;;;;;;;5094456;28;20442;-77
2022/03/31 06:48:48;;;;;;;24.80;20.43;;;;;;;;;;5094457;28;20504;-79
2022/03/31 06:51:17;;;;;;;24.07;20.70;;;;;;;;;;5094816;28;20942;-77
2022/03/31 06:53:45;;;;;;;23.20;20.60;;;;;;;;;;5093299;28;20451;-78
2022/03/31 06:56:16;;;;;;;24.63;19.73;;;;;;;;;;5093669;28;20449;-80
2022/03/31 06:58:44;;;;;;;24.53;19.57;;;;;;;;;;5093756;28;20451;-79
2022/03/31 07:01:11;;;;;;;33.23;20.07;;;;;;;;;;5093248;28;20483;-78
2022/03/31 07:03:38;;;;;;;27.33;20.40;;;;;;;;;;5093144;28;20552;-78
2022/03/31 07:06:07;;;;;;;20.97;18.77;;;;;;;;;;5093984;28;20450;-79
2022/03/31 07:08:35;;;;;;;21.60;19.30;;;;;;;;;;5092784;28;20543;-78
2022/03/31 07:11:02;;;;;;;21.80;19.10;;;;;;;;;;5092878;28;20584;-79
2022/03/31 07:13:30;;;;;;;23.60;21.10;;;;;;;;;;5092633;28;20888;-77
2022/03/31 07:15:57;;;;;;;21.70;19.40;;;;;;;;;;5093906;28;20434;-79
2022/03/31 07:18:24;;;;;;;23.80;19.80;;;;;;;;;;5093206;28;20531;-79
2022/03/31 07:20:51;;;;;;;22.33;19.60;;;;;;;;;;5093212;28;20479;-78
2022/03/31 07:23:21;;;;;;;22.53;20.20;;;;;;;;;;5092913;28;20467;-78
2022/03/31 07:25:48;;;;;;;22.17;19.77;;;;;;;;;;5092986;28;20471;-79
2022/03/31 07:28:15;;;;;;;23.20;20.50;;;;;;;;;;5092814;28;20999;-78
2022/03/31 07:30:42;;;;;;;23.17;20.70;;;;;;;;;;5093756;28;20438;-77
2022/03/31 07:33:10;;;;;;;23.37;20.87;;;;;;;;;;5093361;28;20817;-78
2022/03/31 07:35:38;;;;;;;22.00;18.77;;;;;;;;;;5098739;28;20481;-78
2022/03/31 07:38:07;;;;;;;21.70;18.97;;;;;;;;;;5101509;28;20451;-78
2022/03/31 07:40:37;;;;;;;21.63;18.93;;;;;;;;;;5094291;28;20528;-78
2022/03/31 07:43:04;;;;;;;23.53;19.20;;;;;;;;;;5093728;28;20479;-79
2022/03/31 07:45:32;;;;;;;22.47;20.07;;;;;;;;;;5093967;28;20452;-79
2022/03/31 07:47:59;;;;;;;24.33;20.80;;;;;;;;;;5093947;28;20448;-78
2022/03/31 07:50:26;;;;;;;22.13;19.43;;;;;;;;;;5092179;28;20435;-78
2022/03/31 07:52:53;;;;;;;23.50;21.00;;;;;;;;;;5092981;28;20457;-79
2022/03/31 07:55:20;;;;;;;22.60;20.20;;;;;;;;;;5092749;28;20441;-78
2022/03/31 07:57:49;;;;;;;22.33;19.87;;;;;;;;;;5092908;28;20958;-78
2022/03/31 08:00:17;;;;;;;23.23;20.73;;;;;;;;;;5092409;28;20518;-79
2022/03/31 08:02:45;;;;;;;22.70;20.30;;;;;;;;;;5091409;28;20479;-78
2022/03/31 08:05:13;;;;;;;24.63;21.20;;;;;;;;;;5087395;28;20520;-80
2022/03/31 08:07:40;;;;;;;24.07;21.57;;;;;;;;;;5073117;28;20491;-78
2022/03/31 08:10:08;;;;;;;22.50;20.10;;;;;;;;;;5072772;28;20541;-78
2022/03/31 08:12:35;;;;;;;23.20;20.67;;;;;;;;;;5072762;28;20452;-80
2022/03/31 08:15:04;;;;;;;26.67;21.03;;;;;;;;;;5073466;28;20478;-79
2022/03/31 08:17:31;;;;;;;22.83;20.43;;;;;;;;;;5072461;28;20439;-78
2022/03/31 08:19:59;;;;;;;23.23;20.83;;;;;;;;;;5072286;28;20441;-79
2022/03/31 08:22:26;;;;;;;23.27;20.70;;;;;;;;;;5072449;28;20473;-78
2022/03/31 08:24:54;;;;;;;23.33;20.70;;;;;;;;;;5072046;28;20498;-79
2022/03/31 08:27:22;;;;;;;23.77;21.27;;;;;;;;;;5072902;28;20482;-78
2022/03/31 08:29:49;;;;;;;23.07;20.43;;;;;;;;;;5072834;28;20436;-79
2022/03/31 08:32:17;;;;;;;25.27;22.20;;;;;;;;;;5073135;28;20490;-78
2022/03/31 08:34:44;;;;;;;25.63;21.90;;;;;;;;;;5075921;28;20449;-78
2022/03/31 08:37:11;;;;;;;24.23;21.50;;;;;;;;;;5082505;28;20445;-78
2022/03/31 08:39:38;;;;;;;22.50;20.20;;;;;;;;;;5081241;28;20447;-78
2022/03/31 08:42:06;;;;;;;24.47;20.87;;;;;;;;;;5080571;28;20480;-77
2022/03/31 08:44:34;;;;;;;28.43;23.50;;;;;;;;;;5079440;28;20496;-78
2022/03/31 08:47:01;;;;;;;26.13;23.00;;;;;;;;;;5077071;28;20471;-79
2022/03/31 08:49:31;;;;;;;26.20;22.53;;;;;;;;;;5076508;28;20451;-79
2022/03/31 08:51:58;;;;;;;24.70;22.00;;;;;;;;;;5079273;28;20460;-78
2022/03/31 08:54:25;;;;;;;26.63;22.43;;;;;;;;;;5078514;28;20468;-79
2022/03/31 08:56:54;;;;;;;24.33;19.60;;;;;;;;;;5080865;28;20440;-78
2022/03/31 08:59:21;;;;;;;25.40;21.07;;;;;;;;;;5078454;28;20443;-80
2022/03/31 09:01:49;;;;;;;23.83;21.30;;;;;;;;;;5080170;28;20540;-77
2022/03/31 09:04:22;;;;;;;24.00;21.40;;;;;;;;;;5078813;28;20554;-79
2022/03/31 09:06:51;;;;;;;25.60;22.00;;;;;;;;;;5097441;28;20485;-78
2022/03/31 09:09:18;;;;;;;26.50;22.00;;;;;;;;;;5100372;28;20451;-77
2022/03/31 09:11:46;;;;;;;26.37;23.37;;;;;;;;;;5099081;28;20517;-78
2022/03/31 09:14:14;;;;;;;30.23;23.10;;;;;;;;;;5097685;28;20452;-78
2022/03/31 09:16:41;;;;;;;26.47;21.60;;;;;;;;;;5098627;28;20461;-78
2022/03/31 09:19:10;;;;;;;23.27;20.63;;;;;;;;;;5099599;28;20481;-80
2022/03/31 09:21:37;;;;;;;27.60;20.90;;;;;;;;;;5099999;28;20842;-78
2022/03/31 09:24:07;;;;;;;24.47;21.80;;;;;;;;;;5100416;28;20471;-79
2022/03/31 09:26:34;;;;;;;25.33;21.50;;;;;;;;;;5103365;28;20424;-79
2022/03/31 09:29:12;;;;;;;26.07;21.80;;;;;;;;;;5100687;28;20541;-80
2022/03/31 09:31:40;;;;;;;26.30;22.00;;;;;;;;;;5100603;28;20435;-78
2022/03/31 09:34:07;;;;;;;25.03;21.30;;;;;;;;;;5100355;28;20651;-81
2022/03/31 09:36:34;;;;;;;29.83;22.50;;;;;;;;;;5099141;28;20471;-79
2022/03/31 09:39:02;;;;;;;24.90;22.17;;;;;;;;;;5098573;28;20618;-78
2022/03/31 09:41:31;;;;;;;25.90;22.40;;;;;;;;;;5098517;28;21004;-78
2022/03/31 09:43:59;;;;;;;30.00;24.10;;;;;;;;;;5098350;28;20528;-78
2022/03/31 09:46:27;;;;;;;29.30;24.20;;;;;;;;;;5098985;28;20439;-77
2022/03/31 09:48:55;;;;;;;25.30;22.60;;;;;;;;;;5099982;28;20436;-77
2022/03/31 09:51:23;;;;;;;27.30;24.00;;;;;;;;;;5100319;28;20448;-78
2022/03/31 09:53:51;;;;;;;25.07;21.60;;;;;;;;;;5098037;28;20467;-79
2022/03/31 09:56:18;;;;;;;28.10;24.93;;;;;;;;;;5097469;28;20493;-80
2022/03/31 09:58:47;;;;;;;25.03;22.37;;;;;;;;;;5098303;28;20447;-81
2022/03/31 10:01:15;;;;;;;26.07;22.47;;;;;;;;;;5098687;28;20471;-79
2022/03/31 10:03:42;;;;;;;26.30;22.47;;;;;;;;;;5096092;28;20500;-79
2022/03/31 10:06:09;;;;;;;25.30;21.97;;;;;;;;;;5096726;28;20444;-80
2022/03/31 10:08:39;;;;;;;25.63;22.27;;;;;;;;;;5097069;28;20516;-80
2022/03/31 10:11:06;;;;;;;25.23;22.50;;;;;;;;;;5098212;28;20483;-80
2022/03/31 10:13:38;;;;;;;25.57;22.83;;;;;;;;;;5098694;28;20467;-80
2022/03/31 10:16:09;;;;;;;25.70;22.20;;;;;;;;;;5098125;28;20424;-79
2022/03/31 10:18:36;;;;;;;24.73;21.80;;;;;;;;;;5096434;28;20445;-79
2022/03/31 10:21:04;;;;;;;25.23;22.50;;;;;;;;;;5096231;28;20436;-79
2022/03/31 10:26:25;;;;;;;22.87;20.50;;;;;;;;;;5060928;28;20446;-79
2022/03/31 10:28:56;;;;;;;23.93;20.80;;;;;;;;;;5097144;28;20523;-79
2022/03/31 10:31:34;;;;;;;23.30;20.90;;;;;;;;;;5097757;28;20485;-80
2022/03/31 10:34:01;;;;;;;23.93;21.50;;;;;;;;;;5096404;28;21008;-78
2022/03/31 10:36:36;;;;;;;23.77;21.33;;;;;;;;;;5097911;28;20931;-78
2022/03/31 10:39:05;;;;;;;26.30;23.00;;;;;;;;;;5097534;28;20497;-80
2022/03/31 10:41:33;;;;;;;25.07;22.40;;;;;;;;;;5098136;28;20518;-80
2022/03/31 10:44:00;;;;;;;25.67;23.07;;;;;;;;;;5098352;28;20478;-81
2022/03/31 10:46:29;;;;;;;26.17;23.10;;;;;;;;;;5097491;28;20440;-79
2022/03/31 10:48:57;;;;;;;27.60;23.10;;;;;;;;;;5097147;28;20460;-80
2022/03/31 10:51:32;;;;;;;27.93;23.67;;;;;;;;;;5098164;28;20440;-79
2022/03/31 10:53:59;;;;;;;27.20;23.63;;;;;;;;;;5097630;28;20458;-78
2022/03/31 10:56:27;;;;;;;28.10;24.60;;;;;;;;;;5096803;28;20470;-79
2022/03/31 10:58:54;;;;;;;29.17;23.47;;;;;;;;;;5096759;28;20428;-78
2022/03/31 11:01:22;;;;;;;25.47;22.77;;;;;;;;;;5095861;28;20952;-80
2022/03/31 11:03:51;;;;;;;28.83;23.97;;;;;;;;;;5100102;28;20490;-80
2022/03/31 11:06:18;;;;;;;28.90;23.80;;;;;;;;;;5081042;28;20467;-79
2022/03/31 11:08:46;;;;;;;27.33;24.37;;;;;;;;;;5073978;28;20479;-80
2022/03/31 11:11:20;;;;;;;27.57;24.60;;;;;;;;;;5073799;28;20441;-81
2022/03/31 11:13:47;;;;;;;27.00;24.07;;;;;;;;;;5074160;28;20503;-79
2022/03/31 11:16:15;;;;;;;26.97;24.10;;;;;;;;;;5074700;28;20440;-79
2022/03/31 11:18:43;;;;;;;29.60;25.03;;;;;;;;;;5074265;28;20444;-79
2022/03/31 11:21:11;;;;;;;27.73;23.67;;;;;;;;;;5073489;28;20524;-81
2022/03/31 11:23:46;;;;;;;24.63;21.97;;;;;;;;;;5073132;28;20480;-78
2022/03/31 11:26:16;;;;;;;28.57;24.30;;;;;;;;;;5073526;28;20463;-79
2022/03/31 11:28:45;;;;;;;24.87;22.20;;;;;;;;;;5073756;28;20948;-77
2022/03/31 11:31:13;;;;;;;26.30;22.97;;;;;;;;;;5072854;28;20526;-78
2022/03/31 11:33:40;;;;;;;29.87;25.93;;;;;;;;;;5073894;28;20465;-80
2022/03/31 11:36:07;;;;;;;27.67;24.67;;;;;;;;;;5073573;28;20506;-79
2022/03/31 11:38:36;;;;;;;30.77;24.80;;;;;;;;;;5073476;28;20451;-79
2022/03/31 11:41:03;;;;;;;26.67;23.60;;;;;;;;;;5073976;28;20453;-80
2022/03/31 11:43:32;;;;;;;26.33;23.50;;;;;;;;;;5073458;28;20491;-80
2022/03/31 11:46:00;;;;;;;28.40;24.33;;;;;;;;;;5073988;28;20441;-80
2022/03/31 11:48:33;;;;;;;25.23;22.50;;;;;;;;;;5073893;28;20448;-79
2022/03/31 11:51:01;;;;;;;25.43;22.77;;;;;;;;;;5074068;28;20451;-78
2022/03/31 11:53:30;;;;;;;25.40;22.27;;;;;;;;;;5073391;28;20457;-80
2022/03/31 11:56:02;;;;;;;27.10;22.70;;;;;;;;;;5074497;28;20440;-81
2022/03/31 11:58:30;;;;;;;24.00;21.37;;;;;;;;;;5078014;28;21154;-78
2022/03/31 12:00:57;;;;;;;28.70;22.90;;;;;;;;;;5074332;28;20447;-79
2022/03/31 12:03:24;;;;;;;28.03;22.60;;;;;;;;;;5076128;28;20988;-79
2022/03/31 12:05:56;;;;;;;25.63;22.80;;;;;;;;;;5085322;28;20911;-78
2022/03/31 12:08:24;;;;;;;26.03;22.03;;;;;;;;;;5094260;28;20455;-79
2022/03/31 12:10:51;;;;;;;24.27;20.70;;;;;;;;;;5095094;28;20892;-79
2022/03/31 12:13:20;;;;;;;24.50;21.13;;;;;;;;;;5100696;28;20484;-77
2022/03/31 12:15:47;;;;;;;23.17;20.60;;;;;;;;;;5103714;28;20492;-77
2022/03/31 12:18:15;;;;;;;23.67;21.17;;;;;;;;;;5103346;28;20428;-80
2022/03/31 12:20:42;;;;;;;25.40;22.20;;;;;;;;;;5101214;28;20475;-78
2022/03/31 12:23:19;;;;;;;22.20;20.00;;;;;;;;;;5091711;28;20475;-77
2022/03/31 12:25:46;;;;;;;23.63;21.10;;;;;;;;;;5092441;28;20589;-81
2022/03/31 12:28:14;;;;;;;22.17;19.80;;;;;;;;;;5091220;28;20439;-77
2022/03/31 12:30:44;;;;;;;23.47;20.97;;;;;;;;;;5092177;28;20432;-77
2022/03/31 12:33:17;;;;;;;24.07;21.57;;;;;;;;;;5091732;28;20440;-79
2022/03/31 12:35:50;;;;;;;21.37;19.03;;;;;;;;;;5091110;28;20985;-79
2022/03/31 12:38:18;;;;;;;22.27;19.97;;;;;;;;;;5091722;28;20501;-76
2022/03/31 12:40:45;;;;;;;26.80;22.00;;;;;;;;;;5091412;28;20451;-79
2022/03/31 12:43:12;;;;;;;22.40;19.40;;;;;;;;;;5090965;28;20487;-78
2022/03/31 12:45:39;;;;;;;24.40;21.33;;;;;;;;;;5091695;28;20448;-80
2022/03/31 12:48:12;;;;;;;24.73;22.13;;;;;;;;;;5092231;28;20455;-77
2022/03/31 12:50:40;;;;;;;23.80;21.23;;;;;;;;;;5092271;28;20467;-79
2022/03/31 12:53:07;;;;;;;22.83;20.40;;;;;;;;;;5092653;28;20512;-78
2022/03/31 12:55:35;;;;;;;25.13;21.50;;;;;;;;;;5092342;28;20439;-78
2022/03/31 12:58:02;;;;;;;23.53;19.60;;;;;;;;;;5091856;28;20537;-78
2022/03/31 13:00:31;;;;;;;24.90;22.00;;;;;;;;;;5094323;28;20448;-80
2022/03/31 13:02:59;;;;;;;23.77;21.17;;;;;;;;;;5091122;28;20471;-80
2022/03/31 13:05:28;;;;;;;25.20;22.50;;;;;;;;;;5085231;28;20887;-80
2022/03/31 13:07:56;;;;;;;25.60;20.87;;;;;;;;;;5073449;28;20455;-80
2022/03/31 13:10:23;;;;;;;26.93;21.70;;;;;;;;;;5073073;28;20456;-79
2022/03/31 13:12:51;;;;;;;23.90;19.93;;;;;;;;;;5071322;28;20468;-79
2022/03/31 13:15:18;;;;;;;24.67;21.57;;;;;;;;;;5071872;28;20449;-79
2022/03/31 13:17:45;;;;;;;23.70;20.83;;;;;;;;;;5071567;28;20433;-78
2022/03/31 13:20:13;;;;;;;24.43;21.77;;;;;;;;;;5072189;28;20479;-78
2022/03/31 13:22:42;;;;;;;24.87;21.20;;;;;;;;;;5071132;28;20472;-79
2022/03/31 13:25:10;;;;;;;23.70;21.00;;;;;;;;;;5071128;28;20495;-77
2022/03/31 13:27:37;;;;;;;22.60;20.30;;;;;;;;;;5071010;28;20513;-80
2022/03/31 13:30:07;;;;;;;22.30;19.93;;;;;;;;;;5071241;28;20460;-78
2022/03/31 13:32:34;;;;;;;23.97;19.40;;;;;;;;;;5072711;28;20932;-77
2022/03/31 13:35:01;;;;;;;25.07;20.97;;;;;;;;;;5074401;28;20448;-80
2022/03/31 13:37:29;;;;;;;25.03;21.00;;;;;;;;;;5075063;28;20444;-78
2022/03/31 13:39:59;;;;;;;22.00;19.07;;;;;;;;;;5074263;28;20479;-80
2022/03/31 13:42:26;;;;;;;25.43;19.13;;;;;;;;;;5073637;28;20960;-80
2022/03/31 13:44:54;;;;;;;24.37;20.70;;;;;;;;;;5075016;28;20457;-79
2022/03/31 13:47:21;;;;;;;26.30;19.17;;;;;;;;;;5074913;28;20522;-80
2022/03/31 13:49:48;;;;;;;24.60;21.37;;;;;;;;;;5074941;28;20886;-81
2022/03/31 13:52:15;;;;;;;25.30;19.53;;;;;;;;;;5074995;28;20449;-79
2022/03/31 13:54:42;;;;;;;23.13;20.20;;;;;;;;;;5074258;28;20491;-80
2022/03/31 14:02:37;;;;;;;23.60;21.10;;;;;;;;;;5074341;28;21013;-79
2022/03/31 14:05:04;;;;;;;26.03;23.07;;;;;;;;;;5080550;28;20946;-78
2022/03/31 14:07:31;;;;;;;28.10;22.30;;;;;;;;;;5100204;28;20452;-80
2022/03/31 14:09:58;;;;;;;27.67;22.40;;;;;;;;;;5094713;28;20440;-79
2022/03/31 14:12:26;;;;;;;26.70;22.03;;;;;;;;;;5097252;28;20466;-79
2022/03/31 14:14:53;;;;;;;27.60;24.00;;;;;;;;;;5095803;28;20888;-78
2022/03/31 14:17:21;;;;;;;30.47;24.73;;;;;;;;;;5095571;28;20493;-79
2022/03/31 14:19:48;;;;;;;30.70;24.13;;;;;;;;;;5096787;28;20462;-80
2022/03/31 14:22:15;;;;;;;28.80;23.70;;;;;;;;;;5094867;28;20493;-80
2022/03/31 14:24:42;;;;;;;28.93;22.77;;;;;;;;;;5095429;28;20537;-79
2022/03/31 14:27:09;;;;;;;26.80;22.83;;;;;;;;;;5095655;28;20938;-80
2022/03/31 14:29:40;;;;;;;28.47;22.83;;;;;;;;;;5094855;28;20459;-79